createdAt,value
2022-10-29T00:01:12.662Z,94062.44
2022-10-29T00:02:44.410Z,94064.34
2022-10-29T00:04:16.273Z,94063.56
2022-10-29T00:05:57.326Z,94065.72
2022-10-29T00:07:29.252Z,94060.91
2022-10-29T00:09:00.873Z,94058.25
2022-10-29T00:10:32.572Z,94055.84
2022-10-29T00:12:04.256Z,94052.09
2022-10-29T00:13:35.948Z,94063.16
2022-10-29T00:15:07.716Z,94050.84
2022-10-29T00:16:39.738Z,94055.94
2022-10-29T00:18:11.418Z,94049.47
2022-10-29T00:19:42.987Z,94058.63
2022-10-29T00:21:15.444Z,94054.84
2022-10-29T00:22:47.204Z,94043.81
2022-10-29T00:24:18.942Z,94046.50
2022-10-29T00:25:50.571Z,94047.59
2022-10-29T00:27:22.126Z,94055.38
2022-10-29T00:28:54.145Z,94049.19
2022-10-29T00:30:26.320Z,94051.13
2022-10-29T00:31:58.618Z,94052.22
2022-10-29T00:33:30.340Z,94054.63
2022-10-29T00:35:01.872Z,94054.38
2022-10-29T00:36:33.485Z,94053.63
2022-10-29T00:38:04.962Z,94055.75
2022-10-29T00:39:37.136Z,94061.69
2022-10-29T00:41:09.242Z,94056.88
2022-10-29T00:42:40.844Z,94060.66
2022-10-29T00:44:16.101Z,94058.78
2022-10-29T00:45:49.871Z,94049.69
2022-10-29T00:47:21.978Z,94052.94
2022-10-29T00:48:53.523Z,94045.44
2022-10-29T00:50:25.061Z,94047.88
2022-10-29T00:51:57.229Z,94043.88
2022-10-29T00:53:29.502Z,94042.78
2022-10-29T00:55:01.181Z,94045.22
2022-10-29T00:56:33.579Z,94042.56
2022-10-29T00:58:05.399Z,94042.56
2022-10-29T00:59:36.950Z,94040.97
2022-10-29T01:01:08.719Z,94039.91
2022-10-29T01:02:40.276Z,94035.88
2022-10-29T01:04:11.945Z,94035.88
2022-10-29T01:05:43.469Z,94032.66
2022-10-29T01:07:15.342Z,94035.88
2022-10-29T01:08:46.876Z,94036.41
2022-10-29T01:10:19.273Z,94039.88
2022-10-29T01:12:01.328Z,94035.31
2022-10-29T01:13:51.470Z,94025.09
2022-10-29T01:15:23.036Z,94028.06
2022-10-29T01:17:13.155Z,94026.19
2022-10-29T01:19:04.988Z,94021.09
2022-10-29T01:20:55.983Z,94025.66
2022-10-29T01:22:36.784Z,94022.97
2022-10-29T01:24:14.125Z,94020.03
2022-10-29T01:25:51.859Z,94018.44
2022-10-29T01:27:26.595Z,94024.91
2022-10-29T01:28:58.196Z,94024.66
2022-10-29T01:30:38.194Z,94028.72
2022-10-29T01:32:12.942Z,94026.53
2022-10-29T01:34:03.205Z,94029.75
2022-10-29T01:35:43.652Z,94018.50
2022-10-29T01:37:17.649Z,94020.38
2022-10-29T01:38:58.107Z,94017.69
2022-10-29T01:40:48.436Z,94012.88
2022-10-29T01:42:26.526Z,94019.31
2022-10-29T01:43:59.679Z,94012.88
2022-10-29T01:45:31.277Z,94014.75
2022-10-29T01:47:03.226Z,94004.31
2022-10-29T01:48:36.048Z,94009.94
2022-10-29T01:50:08.414Z,94000.81
2022-10-29T01:51:39.987Z,94009.13
2022-10-29T01:53:11.625Z,94009.94
2022-10-29T01:54:43.538Z,94001.09
2022-10-29T01:56:15.278Z,94001.38
2022-10-29T01:57:46.900Z,94001.63
2022-10-29T01:59:29.065Z,93997.06
2022-10-29T02:01:10.654Z,93990.09
2022-10-29T02:02:54.615Z,93991.72
2022-10-29T02:04:32.453Z,93993.31
2022-10-29T02:06:10.073Z,93998.69
2022-10-29T02:07:45.748Z,93997.59
2022-10-29T02:09:20.941Z,93999.22
2022-10-29T02:11:11.300Z,93995.19
2022-10-29T02:12:55.336Z,93993.59
2022-10-29T02:14:30.726Z,93997.63
2022-10-29T02:16:02.973Z,94000.00
2022-10-29T02:17:34.653Z,93993.31
2022-10-29T02:19:06.281Z,93997.06
2022-10-29T02:20:42.141Z,93994.38
2022-10-29T02:22:13.694Z,93990.38
2022-10-29T02:23:45.454Z,93985.81
2022-10-29T02:25:17.145Z,93985.53
2022-10-29T02:26:49.507Z,93985.53
2022-10-29T02:29:57.554Z,93987.94
2022-10-29T02:31:29.363Z,93987.97
2022-10-29T02:33:00.829Z,93980.97
2022-10-29T02:34:32.335Z,93983.13
2022-10-29T02:36:04.121Z,93980.72
2022-10-29T02:37:35.657Z,93981.53
2022-10-29T02:39:07.336Z,93984.72
2022-10-29T02:40:39.031Z,93989.53
2022-10-29T02:42:10.730Z,93981.25
2022-10-29T02:43:42.297Z,93979.91
2022-10-29T02:45:13.973Z,93991.13
2022-10-29T02:46:45.473Z,93991.41
2022-10-29T02:48:17.276Z,93991.13
2022-10-29T02:49:48.843Z,93983.88
2022-10-29T02:51:20.457Z,93986.28
2022-10-29T02:52:51.967Z,93980.09
2022-10-29T02:54:23.608Z,93976.88
2022-10-29T02:55:55.150Z,93975.00
2022-10-29T02:57:26.734Z,93979.25
2022-10-29T02:58:58.459Z,93976.84
2022-10-29T03:00:30.165Z,93980.88
2022-10-29T03:02:01.891Z,93988.63
2022-10-29T03:03:33.731Z,93968.56
2022-10-29T03:05:05.439Z,93972.59
2022-10-29T03:06:37.091Z,93983.56
2022-10-29T03:08:08.654Z,93981.44
2022-10-29T03:09:40.541Z,93979.31
2022-10-29T03:11:12.189Z,93986.03
2022-10-29T03:12:43.761Z,93975.56
2022-10-29T03:14:15.274Z,93979.88
2022-10-29T03:15:46.971Z,93979.34
2022-10-29T03:17:18.474Z,93970.50
2022-10-29T03:18:50.046Z,93980.41
2022-10-29T03:20:21.638Z,93974.25
2022-10-29T03:21:53.227Z,93980.41
2022-10-29T03:23:24.799Z,93976.13
2022-10-29T03:24:56.415Z,93976.13
2022-10-29T03:26:27.923Z,93973.44
2022-10-29T03:27:59.969Z,93971.84
2022-10-29T03:29:31.871Z,93978.81
2022-10-29T03:31:03.461Z,93992.75
2022-10-29T03:32:35.336Z,93986.31
2022-10-29T03:34:06.902Z,93984.44
2022-10-29T03:35:38.749Z,93983.91
2022-10-29T03:37:10.359Z,93984.97
2022-10-29T03:38:41.948Z,93982.03
2022-10-29T03:40:13.590Z,93986.31
2022-10-29T03:41:45.250Z,93990.06
2022-10-29T03:43:16.948Z,93983.09
2022-10-29T03:44:48.464Z,93974.81
2022-10-29T03:46:20.147Z,93972.91
2022-10-29T03:47:51.889Z,93977.44
2022-10-29T03:49:24.088Z,93975.31
2022-10-29T03:50:59.433Z,93979.31
2022-10-29T03:52:30.963Z,93980.41
2022-10-29T03:54:02.503Z,93975.84
2022-10-29T03:55:34.331Z,93980.41
2022-10-29T03:57:05.934Z,93980.91
2022-10-29T03:58:37.593Z,93973.44
2022-10-29T04:00:09.704Z,93974.25
2022-10-29T04:01:41.421Z,93975.81
2022-10-29T04:03:13.232Z,93977.97
2022-10-29T04:04:45.450Z,93976.88
2022-10-29T04:06:18.428Z,93971.81
2022-10-29T04:07:50.289Z,93967.78
2022-10-29T04:09:21.893Z,93970.97
2022-10-29T04:10:53.606Z,93966.69
2022-10-29T04:12:25.251Z,93964.28
2022-10-29T04:13:56.873Z,93965.66
2022-10-29T04:15:28.735Z,93971.53
2022-10-29T04:17:00.350Z,93964.84
2022-10-29T04:18:32.001Z,93966.41
2022-10-29T04:20:07.017Z,93966.41
2022-10-29T04:29:12.367Z,93967.47
2022-10-29T04:30:43.964Z,93962.63
2022-10-29T04:32:15.565Z,93969.84
2022-10-29T04:33:47.248Z,93969.81
2022-10-29T04:35:18.883Z,93969.00
2022-10-29T04:36:52.383Z,93970.88
2022-10-29T04:38:23.989Z,93974.34
2022-10-29T04:39:55.587Z,93983.19
2022-10-29T04:41:27.174Z,93984.00
2022-10-29T04:42:59.190Z,93974.91
2022-10-29T04:44:31.045Z,93981.31
2022-10-29T04:46:03.122Z,93982.69
2022-10-29T04:47:34.856Z,93984.03
2022-10-29T04:49:06.601Z,93980.00
2022-10-29T04:50:38.233Z,93985.63
2022-10-29T04:52:09.812Z,93982.94
2022-10-29T04:53:41.797Z,93990.19
2022-10-29T04:55:13.467Z,93984.84
2022-10-29T04:56:45.138Z,93979.22
2022-10-29T04:58:17.736Z,93978.16
2022-10-29T04:59:49.265Z,93981.34
2022-10-29T05:01:21.491Z,93984.00
2022-10-29T05:02:53.720Z,93993.34
2022-10-29T05:04:25.599Z,93984.50
2022-10-29T05:05:57.321Z,93984.50
2022-10-29T05:07:29.240Z,93988.25
2022-10-29T05:09:01.138Z,93990.38
2022-10-29T05:10:33.581Z,93994.66
2022-10-29T05:12:05.380Z,93997.09
2022-10-29T05:13:36.995Z,93998.94
2022-10-29T05:15:08.760Z,93989.84
2022-10-29T05:16:40.482Z,93995.69
2022-10-29T05:18:12.255Z,93999.94
2022-10-29T05:19:44.360Z,93998.59
2022-10-29T05:21:15.981Z,94000.66
2022-10-29T05:22:47.725Z,94001.44
2022-10-29T05:24:19.336Z,94002.50
2022-10-29T05:25:53.700Z,94003.88
2022-10-29T05:27:25.596Z,94005.56
2022-10-29T05:28:58.339Z,94001.31
2022-10-29T05:30:29.873Z,94007.03
2022-10-29T05:32:01.701Z,94001.44
2022-10-29T05:33:33.405Z,94004.44
2022-10-29T05:35:05.250Z,93993.25
2022-10-29T05:36:36.861Z,93999.69
2022-10-29T05:38:09.465Z,94006.16
2022-10-29T05:39:41.355Z,93998.13
2022-10-29T05:41:13.215Z,94000.28
2022-10-29T05:42:47.330Z,94001.63
2022-10-29T05:44:19.866Z,94007.25
2022-10-29T05:45:53.410Z,94008.84
2022-10-29T05:47:25.096Z,94007.75
2022-10-29T05:48:56.807Z,94007.22
2022-10-29T05:50:28.813Z,94009.88
2022-10-29T05:52:00.519Z,94006.34
2022-10-29T05:53:32.330Z,94005.75
2022-10-29T05:55:04.095Z,94006.75
2022-10-29T05:56:35.886Z,94007.53
2022-10-29T05:58:09.362Z,94014.44
2022-10-29T05:59:41.130Z,94011.69
2022-10-29T06:01:13.148Z,94010.22
2022-10-29T06:02:44.864Z,94015.19
2022-10-29T06:04:16.693Z,94010.28
2022-10-29T06:05:48.544Z,94017.19
2022-10-29T06:07:20.173Z,94017.44
2022-10-29T06:08:51.962Z,94009.81
2022-10-29T06:10:23.958Z,94015.91
2022-10-29T06:11:55.704Z,94024.69
2022-10-29T06:13:27.354Z,94023.78
2022-10-29T06:14:59.411Z,94026.66
2022-10-29T06:16:31.395Z,94024.22
2022-10-29T06:18:03.042Z,94018.81
2022-10-29T06:19:34.719Z,94019.34
2022-10-29T06:21:07.073Z,94025.72
2022-10-29T06:22:38.763Z,94022.56
2022-10-29T06:24:10.984Z,94021.59
2022-10-29T06:25:42.581Z,94025.28
2022-10-29T06:27:14.526Z,94024.75
2022-10-29T06:28:46.207Z,94019.97
2022-10-29T06:30:17.905Z,94023.28
2022-10-29T06:31:49.702Z,94031.44
2022-10-29T06:33:21.826Z,94023.19
2022-10-29T06:34:53.455Z,94031.44
2022-10-29T06:36:25.015Z,94027.06
2022-10-29T06:37:57.136Z,94025.94
2022-10-29T06:39:28.898Z,94029.56
2022-10-29T06:41:00.784Z,94038.84
2022-10-29T06:42:32.502Z,94035.28
2022-10-29T06:44:05.375Z,94034.38
2022-10-29T06:45:37.297Z,94032.69
2022-10-29T06:47:09.001Z,94030.44
2022-10-29T06:48:40.732Z,94033.25
2022-10-29T06:50:12.689Z,94031.75
2022-10-29T06:51:44.407Z,94031.63
2022-10-29T06:53:16.841Z,94021.78
2022-10-29T06:54:48.580Z,94019.53
2022-10-29T06:56:20.836Z,94026.25
2022-10-29T06:57:58.593Z,94023.09
2022-10-29T06:59:30.553Z,94027.31
2022-10-29T07:01:02.532Z,94027.25
2022-10-29T07:02:34.519Z,94021.56
2022-10-29T07:04:06.410Z,94027.50
2022-10-29T07:05:38.095Z,94030.09
2022-10-29T07:07:09.796Z,94035.50
2022-10-29T07:08:42.092Z,94032.28
2022-10-29T07:10:13.827Z,94030.91
2022-10-29T07:11:45.668Z,94027.69
2022-10-29T07:13:17.581Z,94030.06
2022-10-29T07:14:49.862Z,94023.28
2022-10-29T07:39:10.291Z,94029.59
2022-10-29T07:40:51.718Z,94027.91
2022-10-29T07:42:23.612Z,94028.91
2022-10-29T07:43:56.808Z,94024.59
2022-10-29T07:45:28.894Z,94021.13
2022-10-29T07:47:02.353Z,94018.16
2022-10-29T07:48:37.576Z,94016.34
2022-10-29T07:50:09.573Z,94016.09
2022-10-29T07:51:42.162Z,94017.91
2022-10-29T07:53:13.972Z,94017.56
2022-10-29T07:54:45.919Z,94016.72
2022-10-29T07:56:18.076Z,94019.81
2022-10-29T07:57:55.579Z,94023.66
2022-10-29T07:59:27.700Z,94015.91
2022-10-29T08:00:59.867Z,94013.03
2022-10-29T08:02:31.589Z,94017.25
2022-10-29T08:04:03.327Z,94007.03
2022-10-29T08:05:35.090Z,94009.63
2022-10-29T08:07:06.760Z,94004.22
2022-10-29T08:08:38.605Z,94005.25
2022-10-29T08:10:10.468Z,93999.69
2022-10-29T08:11:42.179Z,94002.25
2022-10-29T08:13:13.919Z,93994.97
2022-10-29T08:14:45.942Z,93998.00
2022-10-29T08:16:17.560Z,93994.56
2022-10-29T08:17:49.600Z,93998.25
2022-10-29T08:19:21.530Z,94002.69
2022-10-29T08:21:37.529Z,94000.63
2022-10-29T08:23:09.594Z,93999.66
2022-10-29T08:24:41.403Z,93999.50
2022-10-29T08:26:13.724Z,93989.09
2022-10-29T08:27:45.449Z,93991.34
2022-10-29T08:29:17.478Z,93996.31
2022-10-29T08:30:50.029Z,93991.00
2022-10-29T08:32:21.996Z,93988.78
2022-10-29T08:33:53.959Z,93982.81
2022-10-29T08:35:25.795Z,93984.72
2022-10-29T08:36:57.722Z,93984.38
2022-10-29T08:38:33.396Z,93981.44
2022-10-29T08:40:05.638Z,93975.91
2022-10-29T08:42:05.289Z,93975.38
2022-10-29T08:43:47.733Z,93971.69
2022-10-29T08:45:19.644Z,93974.59
2022-10-29T08:47:11.717Z,93976.53
2022-10-29T08:48:49.342Z,93983.00
2022-10-29T08:50:41.205Z,93978.41
2022-10-29T08:52:26.821Z,93977.28
2022-10-29T08:54:25.418Z,93985.75
2022-10-29T08:55:53.262Z,93980.75
2022-10-29T08:57:24.985Z,93984.59
2022-10-29T08:59:14.699Z,93976.38
2022-10-29T09:00:46.459Z,93973.34
2022-10-29T09:02:18.585Z,93971.94
2022-10-29T09:03:51.124Z,93967.88
2022-10-29T09:05:27.418Z,93980.63
2022-10-29T09:13:14.302Z,93963.66
2022-10-29T09:15:04.915Z,93962.16
2022-10-29T09:17:05.077Z,93967.38
2022-10-29T09:18:36.811Z,93969.13
2022-10-29T09:20:08.772Z,93957.91
2022-10-29T09:21:43.283Z,93956.13
2022-10-29T09:23:15.927Z,93960.22
2022-10-29T09:25:09.072Z,93958.09
2022-10-29T09:26:41.078Z,93954.72
2022-10-29T09:28:31.784Z,93948.22
2022-10-29T09:30:09.317Z,93953.19
2022-10-29T09:32:02.231Z,93946.13
2022-10-29T09:33:34.395Z,93946.22
2022-10-29T09:35:08.337Z,93946.72
2022-10-29T09:36:45.913Z,93947.53
2022-10-29T09:38:33.896Z,93938.75
2022-10-29T09:48:29.971Z,93915.75
2022-10-29T09:50:17.253Z,93915.34
2022-10-29T09:52:21.659Z,93923.31
2022-10-29T09:54:03.583Z,93915.88
2022-10-29T09:57:44.879Z,93908.97
2022-10-29T09:59:16.734Z,93908.09
2022-10-29T10:01:02.511Z,93907.53
2022-10-29T10:02:35.433Z,93904.09
2022-10-29T10:04:11.878Z,93895.16
2022-10-29T10:06:03.081Z,93894.97
2022-10-29T10:08:01.656Z,93894.78
2022-10-29T10:10:00.389Z,93891.75
2022-10-29T10:11:53.668Z,93883.19
2022-10-29T10:13:32.669Z,93882.31
2022-10-29T10:15:05.256Z,93875.31
2022-10-29T10:16:48.648Z,93874.66
2022-10-29T10:18:27.023Z,93875.19
2022-10-29T10:20:05.477Z,93877.25
2022-10-29T10:21:39.937Z,93871.09
2022-10-29T10:23:39.165Z,93872.38
2022-10-29T10:25:31.843Z,93870.38
2022-10-29T10:27:23.610Z,93869.84
2022-10-29T10:29:16.974Z,93861.06
2022-10-29T10:31:07.681Z,93860.50
2022-10-29T10:32:39.661Z,93853.44
2022-10-29T10:34:36.028Z,93851.69
2022-10-29T10:36:11.311Z,93843.63
2022-10-29T10:37:55.439Z,93841.16
2022-10-29T10:39:31.554Z,93840.66
2022-10-29T10:41:07.562Z,93831.09
2022-10-29T10:42:39.817Z,93829.66
2022-10-29T10:44:13.281Z,93829.91
2022-10-29T10:45:46.864Z,93832.72
2022-10-29T10:47:22.194Z,93822.19
2022-10-29T10:49:03.957Z,93825.78
2022-10-29T10:50:36.779Z,93826.16
2022-10-29T10:52:55.750Z,93819.56
2022-10-29T10:54:33.754Z,93823.97
2022-10-29T10:56:06.173Z,93813.03
2022-10-29T10:57:44.744Z,93813.59
2022-10-29T10:59:23.925Z,93807.38
2022-10-29T11:00:59.315Z,93810.63
2022-10-29T11:02:36.070Z,93809.53
2022-10-29T11:04:15.822Z,93806.44
2022-10-29T11:06:13.025Z,93808.03
2022-10-29T11:07:44.765Z,93811.63
2022-10-29T11:11:27.991Z,93800.72
2022-10-29T11:13:00.410Z,93798.75
2022-10-29T11:14:36.817Z,93799.94
2022-10-29T11:16:13.249Z,93796.06
2022-10-29T11:17:55.652Z,93794.84
2022-10-29T11:19:36.830Z,93789.31
2022-10-29T11:21:14.775Z,93784.59
2022-10-29T11:22:51.929Z,93781.09
2022-10-29T11:24:25.258Z,93772.81
2022-10-29T11:26:00.438Z,93781.53
2022-10-29T11:27:49.493Z,93780.75
2022-10-29T11:29:40.011Z,93771.72
2022-10-29T11:33:34.908Z,93768.22
2022-10-29T11:35:11.737Z,93759.13
2022-10-29T11:37:07.414Z,93759.13
2022-10-29T11:39:03.670Z,93758.34
2022-10-29T11:43:15.592Z,93744.88
2022-10-29T11:48:04.020Z,93742.50
2022-10-29T11:52:42.648Z,93745.19
2022-10-29T12:01:41.551Z,93737.03
2022-10-29T12:13:43.010Z,93725.25
2022-10-29T12:15:35.701Z,93722.09
2022-10-29T12:17:21.631Z,93722.88
2022-10-29T12:19:26.131Z,93720.91
2022-10-29T12:21:21.012Z,93718.13
2022-10-29T12:23:04.874Z,93711.41
2022-10-29T12:24:43.968Z,93718.50
2022-10-29T12:26:21.128Z,93718.50
2022-10-29T12:28:34.647Z,93715.75
2022-10-29T12:34:01.855Z,93721.28
2022-10-29T12:39:50.766Z,93723.25
2022-10-29T12:41:54.627Z,93720.50
2022-10-29T12:43:30.288Z,93717.75
2022-10-29T12:45:24.455Z,93711.00
2022-10-29T12:47:08.121Z,93706.28
2022-10-29T12:48:55.213Z,93702.34
2022-10-29T12:50:47.358Z,93702.34
2022-10-29T12:52:46.463Z,93698.78
2022-10-29T13:10:31.548Z,93685.72
2022-10-29T13:12:05.183Z,93676.63
2022-10-29T13:13:38.369Z,93676.63
2022-10-29T13:15:11.481Z,93686.09
2022-10-29T13:16:43.418Z,93675.44
2022-10-29T13:18:18.219Z,93680.16
2022-10-29T13:19:55.033Z,93670.28
2022-10-29T13:21:48.527Z,93673.06
2022-10-29T13:23:23.387Z,93668.31
2022-10-29T13:27:08.168Z,93662.81
2022-10-29T13:28:42.158Z,93669.16
2022-10-29T13:30:18.313Z,93664.03
2022-10-29T13:35:41.960Z,93669.59
2022-10-29T13:37:44.077Z,93671.56
2022-10-29T13:39:21.929Z,93668.78
2022-10-29T13:41:08.274Z,93663.66
2022-10-29T13:42:44.194Z,93666.03
2022-10-29T13:44:28.443Z,93671.97
2022-10-29T13:46:14.967Z,93673.16
2022-10-29T13:47:50.367Z,93670.78
2022-10-29T13:49:26.449Z,93670.00
2022-10-29T13:51:07.980Z,93672.34
2022-10-29T13:52:50.255Z,93666.84
2022-10-29T13:54:43.077Z,93666.81
2022-10-29T13:56:19.106Z,93668.03
2022-10-29T13:59:35.223Z,93660.91
2022-10-29T14:00:33.435Z,93662.91
2022-10-29T14:04:32.473Z,93671.53
2022-10-29T14:06:12.639Z,93671.91
2022-10-29T14:07:54.340Z,93666.38
2022-10-29T14:28:51.745Z,93649.72
2022-10-29T14:30:23.666Z,93649.34
2022-10-29T14:32:15.865Z,93644.59
2022-10-29T14:33:57.611Z,93645.34
2022-10-29T14:35:29.460Z,93651.94
2022-10-29T14:37:04.827Z,93653.03
2022-10-29T14:38:41.243Z,93654.09
2022-10-29T14:40:22.400Z,93653.56
2022-10-29T14:41:54.664Z,93656.53
2022-10-29T14:43:26.756Z,93658.06
2022-10-29T14:44:58.418Z,93658.44
2022-10-29T14:46:30.768Z,93660.78
2022-10-29T14:48:05.554Z,93658.81
2022-10-29T14:49:39.496Z,93660.28
2022-10-29T14:51:18.187Z,93661.06
2022-10-29T14:52:53.798Z,93664.06
2022-10-29T14:54:29.313Z,93663.41
2022-10-29T14:56:02.123Z,93664.47
2022-10-29T14:57:34.366Z,93662.72
2022-10-29T14:59:10.828Z,93661.41
2022-10-29T15:00:51.699Z,93665.97
2022-10-29T15:02:37.727Z,93668.22
2022-10-29T15:04:16.738Z,93658.38
2022-10-29T15:05:48.919Z,93669.25
2022-10-29T15:07:22.744Z,93662.13
2022-10-29T15:08:58.645Z,93660.81
2022-10-29T15:10:30.376Z,93666.50
2022-10-29T15:12:03.088Z,93666.59
2022-10-29T15:13:35.170Z,93662.75
2022-10-29T15:15:09.706Z,93664.03
2022-10-29T15:16:42.477Z,93667.50
2022-10-29T15:18:17.538Z,93661.78
2022-10-29T15:19:52.265Z,93660.78
2022-10-29T15:21:24.186Z,93656.44
2022-10-29T15:22:56.258Z,93663.63
2022-10-29T15:24:28.164Z,93655.50
2022-10-29T15:26:01.239Z,93661.16
2022-10-29T15:27:34.788Z,93662.88
2022-10-29T15:29:09.426Z,93662.53
2022-10-29T15:30:41.975Z,93667.84
2022-10-29T15:32:14.531Z,93664.94
2022-10-29T15:33:46.548Z,93667.78
2022-10-29T15:35:19.630Z,93670.25
2022-10-29T15:36:52.103Z,93670.97
2022-10-29T15:38:35.558Z,93668.38
2022-10-29T15:40:12.439Z,93667.41
2022-10-29T15:41:48.260Z,93673.94
2022-10-29T15:43:32.982Z,93669.00
2022-10-29T15:45:07.562Z,93666.34
2022-10-29T15:46:48.735Z,93675.16
2022-10-29T15:48:26.016Z,93675.28
2022-10-29T15:49:57.580Z,93670.59
2022-10-29T15:51:29.593Z,93681.69
2022-10-29T15:53:06.163Z,93680.56
2022-10-29T15:54:37.806Z,93682.56
2022-10-29T15:56:13.222Z,93678.94
2022-10-29T15:57:47.825Z,93675.38
2022-10-29T15:59:20.476Z,93685.38
2022-10-29T16:00:52.335Z,93687.78
2022-10-29T16:02:27.018Z,93681.41
2022-10-29T16:03:58.872Z,93684.72
2022-10-29T16:05:30.963Z,93689.94
2022-10-29T16:07:02.568Z,93694.81
2022-10-29T16:08:35.416Z,93693.22
2022-10-29T16:10:07.329Z,93694.44
2022-10-29T16:11:38.963Z,93698.97
2022-10-29T16:13:11.113Z,93695.34
2022-10-29T16:14:44.656Z,93696.25
2022-10-29T16:16:19.758Z,93699.97
2022-10-29T16:17:51.412Z,93705.09
2022-10-29T16:19:23.547Z,93697.94
2022-10-29T16:20:58.674Z,93708.09
2022-10-29T16:22:30.426Z,93703.06
2022-10-29T16:24:02.545Z,93713.25
2022-10-29T16:25:34.484Z,93705.63
2022-10-29T16:27:13.950Z,93706.09
2022-10-29T16:28:45.713Z,93708.81
2022-10-29T16:30:17.921Z,93705.63
2022-10-29T16:31:49.752Z,93708.09
2022-10-29T16:33:21.583Z,93714.88
2022-10-29T16:34:53.344Z,93714.94
2022-10-29T16:36:25.244Z,93712.31
2022-10-29T16:37:57.202Z,93715.91
2022-10-29T16:39:28.931Z,93719.59
2022-10-29T16:41:00.745Z,93722.66
2022-10-29T16:42:33.852Z,93726.50
2022-10-29T16:44:05.789Z,93728.09
2022-10-29T16:45:39.796Z,93725.38
2022-10-29T16:47:13.813Z,93726.97
2022-10-29T16:48:46.483Z,93725.69
2022-10-29T16:50:19.734Z,93735.78
2022-10-29T16:51:52.360Z,93731.13
2022-10-29T16:53:28.320Z,93732.63
2022-10-29T16:55:00.243Z,93727.81
2022-10-29T16:56:33.345Z,93732.78
2022-10-29T16:58:17.409Z,93732.31
2022-10-29T16:59:51.508Z,93733.00
2022-10-29T17:01:24.521Z,93726.41
2022-10-29T17:02:56.689Z,93725.75
2022-10-29T17:04:28.607Z,93738.38
2022-10-29T17:06:04.637Z,93729.22
2022-10-29T17:07:36.516Z,93733.19
2022-10-29T17:09:08.682Z,93735.13
2022-10-29T17:10:40.324Z,93735.44
2022-10-29T17:12:12.216Z,93733.53
2022-10-29T17:13:44.061Z,93741.69
2022-10-29T17:15:18.263Z,93739.75
2022-10-29T17:16:50.355Z,93739.91
2022-10-29T17:18:23.284Z,93734.59
2022-10-29T17:19:55.292Z,93744.16
2022-10-29T17:21:27.193Z,93737.59
2022-10-29T17:22:58.734Z,93738.22
2022-10-29T17:24:30.538Z,93740.16
2022-10-29T17:26:02.322Z,93741.69
2022-10-29T17:27:34.979Z,93741.91
2022-10-29T17:29:07.572Z,93739.34
2022-10-29T17:30:41.796Z,93743.75
2022-10-29T17:32:13.845Z,93742.66
2022-10-29T17:33:46.085Z,93747.13
2022-10-29T17:35:17.730Z,93741.44
2022-10-29T17:36:49.817Z,93747.03
2022-10-29T17:38:21.557Z,93745.28
2022-10-29T17:39:53.279Z,93740.06
2022-10-29T17:41:24.960Z,93748.38
2022-10-29T17:43:02.927Z,93748.13
2022-10-29T17:44:36.598Z,93748.28
2022-10-29T17:46:08.850Z,93746.56
2022-10-29T17:49:18.142Z,93740.06
2022-10-29T17:50:56.931Z,93749.84
2022-10-29T17:52:29.584Z,93741.91
2022-10-29T17:54:01.528Z,93745.44
2022-10-29T17:55:33.142Z,93752.16
2022-10-29T17:57:05.474Z,93752.66
2022-10-29T17:58:38.222Z,93748.69
2022-10-29T18:00:10.259Z,93747.91
2022-10-29T18:01:43.346Z,93750.44
2022-10-29T18:03:15.950Z,93752.38
2022-10-29T18:04:48.031Z,93749.47
2022-10-29T18:06:20.023Z,93753.00
2022-10-29T18:07:51.962Z,93749.97
2022-10-29T18:09:23.794Z,93746.94
2022-10-29T18:11:01.925Z,93751.56
2022-10-29T18:12:33.814Z,93752.69
2022-10-29T18:14:05.685Z,93749.66
2022-10-29T18:15:38.071Z,93750.13
2022-10-29T18:17:09.922Z,93751.72
2022-10-29T18:18:54.511Z,93756.50
2022-10-29T18:20:33.797Z,93751.56
2022-10-29T18:22:06.453Z,93749.47
2022-10-29T18:23:38.359Z,93748.06
2022-10-29T18:25:13.147Z,93755.88
2022-10-29T18:26:48.012Z,93754.22
2022-10-29T18:28:19.794Z,93751.66
2022-10-29T18:29:51.707Z,93753.72
2022-10-29T18:31:24.329Z,93746.56
2022-10-29T18:32:56.531Z,93749.59
2022-10-29T18:34:28.981Z,93747.84
2022-10-29T18:36:00.732Z,93751.50
2022-10-29T18:37:32.638Z,93754.22
2022-10-29T18:39:05.404Z,93765.34
2022-10-29T18:40:37.877Z,93753.59
2022-10-29T18:42:09.795Z,93756.91
2022-10-29T18:43:41.994Z,93761.75
2022-10-29T18:45:13.683Z,93758.25
2022-10-29T18:46:45.490Z,93759.69
2022-10-29T18:48:17.843Z,93756.00
2022-10-29T18:49:49.870Z,93758.28
2022-10-29T18:51:28.592Z,93759.53
2022-10-29T18:53:00.988Z,93762.72
2022-10-29T18:54:32.963Z,93756.19
2022-10-29T18:56:06.202Z,93760.97
2022-10-29T18:57:37.915Z,93762.22
2022-10-29T18:59:10.125Z,93758.59
2022-10-29T19:00:42.461Z,93759.69
2022-10-29T19:02:14.727Z,93760.00
2022-10-29T19:03:53.637Z,93758.25
2022-10-29T19:05:25.317Z,93759.50
2022-10-29T19:06:56.970Z,93763.78
2022-10-29T19:08:29.318Z,93763.94
2022-10-29T19:10:00.982Z,93762.34
2022-10-29T19:11:32.743Z,93761.56
2022-10-29T19:13:05.435Z,93766.19
2022-10-29T19:14:37.378Z,93763.47
2022-10-29T19:16:13.716Z,93766.50
2022-10-29T19:17:46.096Z,93755.00
2022-10-29T19:19:21.165Z,93761.53
2022-10-29T19:20:56.196Z,93763.44
2022-10-29T19:22:27.834Z,93769.53
2022-10-29T19:24:00.039Z,93763.94
2022-10-29T19:25:36.364Z,93760.72
2022-10-29T19:27:10.540Z,93763.72
2022-10-29T19:28:42.823Z,93767.16
2022-10-29T19:30:14.844Z,93767.94
2022-10-29T19:31:47.131Z,93765.03
2022-10-29T19:33:19.004Z,93756.78
2022-10-29T19:34:50.730Z,93759.00
2022-10-29T19:36:22.642Z,93767.72
2022-10-29T19:37:54.590Z,93759.41
2022-10-29T19:39:26.876Z,93761.97
2022-10-29T19:40:59.147Z,93759.56
2022-10-29T19:42:31.225Z,93765.59
2022-10-29T19:44:02.976Z,93764.63
2022-10-29T19:45:34.838Z,93762.06
2022-10-29T19:47:06.896Z,93764.78
2022-10-29T19:48:38.818Z,93761.06
2022-10-29T19:50:10.411Z,93770.00
2022-10-29T19:51:42.100Z,93766.00
2022-10-29T19:53:13.761Z,93767.44
2022-10-29T19:54:46.203Z,93767.13
2022-10-29T19:56:17.788Z,93770.16
2022-10-29T19:57:49.475Z,93770.44
2022-10-29T19:59:21.098Z,93775.88
2022-10-29T20:00:53.178Z,93782.88
2022-10-29T20:02:24.887Z,93781.28
2022-10-29T20:03:56.894Z,93777.25
2022-10-29T20:05:28.958Z,93774.84
2022-10-29T20:07:01.090Z,93774.84
2022-10-29T20:08:32.655Z,93777.25
2022-10-29T20:10:05.239Z,93779.75
2022-10-29T20:11:37.237Z,93780.22
2022-10-29T20:13:09.124Z,93777.91
2022-10-29T20:14:40.748Z,93777.75
2022-10-29T20:16:13.974Z,93783.97
2022-10-29T20:17:45.519Z,93782.88
2022-10-29T20:19:17.188Z,93787.63
2022-10-29T20:20:57.566Z,93785.44
2022-10-29T20:22:29.140Z,93783.16
2022-10-29T20:24:01.642Z,93790.09
2022-10-29T20:25:33.212Z,93789.44
2022-10-29T20:27:04.716Z,93789.25
2022-10-29T20:28:36.549Z,93783.53
2022-10-29T20:30:08.541Z,93781.81
2022-10-29T20:31:41.479Z,93788.53
2022-10-29T20:33:13.337Z,93790.09
2022-10-29T20:34:44.886Z,93779.72
2022-10-29T20:36:16.528Z,93784.63
2022-10-29T20:37:48.176Z,93776.81
2022-10-29T20:39:20.271Z,93776.38
2022-10-29T20:40:52.696Z,93788.88
2022-10-29T20:42:24.768Z,93784.88
2022-10-29T20:43:57.379Z,93787.41
2022-10-29T20:45:29.612Z,93779.91
2022-10-29T20:47:01.348Z,93783.22
2022-10-29T20:48:36.392Z,93782.22
2022-10-29T20:50:08.656Z,93783.97